createdAt,value
2018-12-07T00:00:28.773Z,9.75
2018-12-07T00:01:28.825Z,9.76
2018-12-07T00:02:28.986Z,9.75
2018-12-07T00:03:28.889Z,9.73
2018-12-07T00:04:28.933Z,9.75
2018-12-07T00:05:28.981Z,9.75
2018-12-07T00:06:29.029Z,9.75
2018-12-07T00:07:29.091Z,9.76
2018-12-07T00:08:29.117Z,9.78
2018-12-07T00:09:29.168Z,9.79
2018-12-07T00:10:29.208Z,9.79
2018-12-07T00:11:29.274Z,9.88
2018-12-07T00:12:29.321Z,9.85
2018-12-07T00:13:29.359Z,9.85
2018-12-07T00:14:29.390Z,9.76
2018-12-07T00:15:29.452Z,9.91
2018-12-07T00:16:29.489Z,9.82
2018-12-07T00:17:29.550Z,9.81
2018-12-07T00:18:29.579Z,9.94
2018-12-07T00:19:29.617Z,9.82
2018-12-07T00:20:29.661Z,9.88
2018-12-07T00:21:29.710Z,9.94
2018-12-07T00:22:30.595Z,9.88
2018-12-07T00:23:29.800Z,9.93
2018-12-07T00:24:29.845Z,9.85
2018-12-07T00:25:29.893Z,9.82
2018-12-07T00:26:29.947Z,9.79
2018-12-07T00:27:29.989Z,9.78
2018-12-07T00:28:30.047Z,9.68
2018-12-07T00:29:30.079Z,9.68
2018-12-07T00:30:30.122Z,9.66
2018-12-07T00:31:30.175Z,9.76
2018-12-07T00:32:30.332Z,9.71
2018-12-07T00:33:30.279Z,9.66
2018-12-07T00:34:30.320Z,9.66
2018-12-07T00:35:30.370Z,9.63
2018-12-07T00:36:30.392Z,9.66
2018-12-07T00:37:30.439Z,9.71
2018-12-07T00:38:30.498Z,9.70
2018-12-07T00:39:30.570Z,9.68
2018-12-07T00:40:30.575Z,9.71
2018-12-07T00:41:30.622Z,9.73
2018-12-07T00:42:30.678Z,9.76
2018-12-07T00:43:30.717Z,9.81
2018-12-07T00:44:30.782Z,9.85
2018-12-07T00:45:30.805Z,9.82
2018-12-07T00:46:30.849Z,9.91
2018-12-07T00:47:30.895Z,9.85
2018-12-07T00:48:30.942Z,9.89
2018-12-07T00:49:31.020Z,9.82
2018-12-07T00:50:31.034Z,9.81
2018-12-07T00:51:31.084Z,9.86
2018-12-07T00:52:31.144Z,9.78
2018-12-07T00:53:31.170Z,9.79
2018-12-07T00:54:31.218Z,9.89
2018-12-07T00:55:31.298Z,9.85
2018-12-07T00:56:31.330Z,9.85
2018-12-07T00:57:31.443Z,9.83
2018-12-07T00:58:31.399Z,9.85
2018-12-07T00:59:31.454Z,9.81
2018-12-07T01:00:31.507Z,9.86
2018-12-07T01:01:31.562Z,9.83
2018-12-07T01:02:31.606Z,9.82
2018-12-07T01:03:31.629Z,9.81
2018-12-07T01:04:31.672Z,9.79
2018-12-07T01:05:31.720Z,9.79
2018-12-07T01:06:32.481Z,9.75
2018-12-07T01:07:31.812Z,9.81
2018-12-07T01:08:31.860Z,9.70
2018-12-07T01:09:31.974Z,9.73
2018-12-07T01:10:31.949Z,9.63
2018-12-07T01:11:32.022Z,9.75
2018-12-07T01:12:32.065Z,9.81
2018-12-07T01:13:32.099Z,9.70
2018-12-07T01:14:32.131Z,9.75
2018-12-07T01:15:32.175Z,9.70
2018-12-07T01:16:32.228Z,9.73
2018-12-07T01:17:32.288Z,9.75
2018-12-07T01:18:32.331Z,9.71
2018-12-07T01:19:32.360Z,9.75
2018-12-07T01:20:32.407Z,9.73
2018-12-07T01:21:32.465Z,9.71
2018-12-07T01:22:32.528Z,9.73
2018-12-07T01:23:32.542Z,9.71
2018-12-07T01:24:32.616Z,9.71
2018-12-07T01:25:32.633Z,9.64
2018-12-07T01:26:32.681Z,9.58
2018-12-07T01:27:32.749Z,9.63
2018-12-07T01:28:32.781Z,9.56
2018-12-07T01:29:32.821Z,9.48
2018-12-07T01:30:32.874Z,9.58
2018-12-07T01:31:32.907Z,9.49
2018-12-07T01:32:32.976Z,9.46
2018-12-07T01:33:33.002Z,9.48
2018-12-07T01:34:33.076Z,9.46
2018-12-07T01:35:33.127Z,9.46
2018-12-07T01:36:33.135Z,9.45
2018-12-07T01:37:33.182Z,9.49
2018-12-07T01:38:33.230Z,9.49
2018-12-07T01:39:33.307Z,9.53
2018-12-07T01:40:33.322Z,9.50
2018-12-07T01:41:33.366Z,9.56
2018-12-07T01:42:33.412Z,9.60
2018-12-07T01:43:33.456Z,9.56
2018-12-07T01:44:33.529Z,9.60
2018-12-07T01:45:33.548Z,9.53
2018-12-07T01:46:33.596Z,9.57
2018-12-07T01:47:33.647Z,9.63
2018-12-07T01:48:33.686Z,9.56
2018-12-07T01:49:33.758Z,9.58
2018-12-07T01:50:33.775Z,9.53
2018-12-07T01:51:33.847Z,9.49
2018-12-07T01:52:33.864Z,9.53
2018-12-07T01:53:33.913Z,9.52
2018-12-07T01:54:33.961Z,9.56
2018-12-07T01:55:34.011Z,9.61
2018-12-07T01:56:34.076Z,9.57
2018-12-07T01:57:34.095Z,9.57
2018-12-07T01:58:34.141Z,9.63
2018-12-07T01:59:34.210Z,9.66
2018-12-07T02:00:34.248Z,9.68
2018-12-07T02:01:34.290Z,9.71
2018-12-07T02:02:34.349Z,9.63
2018-12-07T02:03:34.379Z,9.60
2018-12-07T02:04:34.442Z,9.63
2018-12-07T02:05:34.460Z,9.58
2018-12-07T02:06:34.531Z,9.56
2018-12-07T02:07:34.555Z,9.53
2018-12-07T02:08:34.596Z,9.50
2018-12-07T02:09:34.645Z,9.49
2018-12-07T02:10:34.694Z,9.43
2018-12-07T02:11:34.756Z,9.52
2018-12-07T02:12:34.777Z,9.50
2018-12-07T02:13:34.831Z,9.43
2018-12-07T02:14:34.938Z,9.48
2018-12-07T02:15:34.941Z,9.49
2018-12-07T02:16:34.965Z,9.42
2018-12-07T02:17:35.027Z,9.45
2018-12-07T02:18:35.064Z,9.46
2018-12-07T02:19:35.103Z,9.40
2018-12-07T02:20:35.152Z,9.45
2018-12-07T02:21:35.230Z,9.39
2018-12-07T02:22:35.256Z,9.43
2018-12-07T02:23:35.288Z,9.49
2018-12-07T02:24:35.328Z,9.45
2018-12-07T02:25:35.407Z,9.38
2018-12-07T02:26:35.434Z,9.46
2018-12-07T02:27:35.492Z,9.45
2018-12-07T02:28:35.538Z,9.52
2018-12-07T02:29:35.555Z,9.50
2018-12-07T02:30:35.602Z,9.48
2018-12-07T02:31:35.643Z,9.49
2018-12-07T02:32:35.722Z,9.50
2018-12-07T02:33:35.755Z,9.53
2018-12-07T02:34:35.782Z,9.53
2018-12-07T02:35:35.829Z,9.57
2018-12-07T02:36:35.870Z,9.68
2018-12-07T02:37:35.928Z,9.70
2018-12-07T02:38:35.983Z,9.71
2018-12-07T02:39:36.020Z,9.68
2018-12-07T02:40:36.063Z,9.57
2018-12-07T02:41:36.102Z,9.58
2018-12-07T02:42:36.144Z,9.56
2018-12-07T02:43:36.212Z,9.66
2018-12-07T02:44:36.251Z,9.58
2018-12-07T02:45:36.284Z,9.57
2018-12-07T02:46:36.330Z,9.58
2018-12-07T02:47:36.383Z,9.58
2018-12-07T02:48:36.420Z,9.52
2018-12-07T02:49:36.483Z,9.48
2018-12-07T02:50:36.532Z,9.48
2018-12-07T02:51:36.568Z,9.40
2018-12-07T02:52:36.607Z,9.38
2018-12-07T02:53:36.695Z,9.32
2018-12-07T02:54:36.710Z,9.42
2018-12-07T02:55:36.759Z,9.39
2018-12-07T02:56:36.782Z,9.45
2018-12-07T02:57:36.841Z,9.43
2018-12-07T02:58:37.792Z,9.52
2018-12-07T02:59:36.921Z,9.49
2018-12-07T03:00:36.982Z,9.48
2018-12-07T03:01:37.017Z,9.49
2018-12-07T03:02:37.088Z,9.50
2018-12-07T03:03:37.109Z,9.57
2018-12-07T03:04:37.150Z,9.60
2018-12-07T03:05:37.192Z,9.58
2018-12-07T03:06:37.238Z,9.56
2018-12-07T03:07:37.303Z,9.58
2018-12-07T03:08:37.325Z,9.57
2018-12-07T03:09:37.379Z,9.67
2018-12-07T03:10:37.417Z,9.70
2018-12-07T03:11:37.483Z,9.71
2018-12-07T03:12:37.516Z,9.75
2018-12-07T03:13:37.554Z,9.73
2018-12-07T03:14:37.600Z,9.73
2018-12-07T03:15:37.646Z,9.70
2018-12-07T03:16:37.756Z,9.70
2018-12-07T03:17:37.735Z,9.70
2018-12-07T03:18:37.780Z,9.71
2018-12-07T03:19:37.842Z,9.58
2018-12-07T03:20:37.870Z,9.57
2018-12-07T03:21:37.921Z,9.57
2018-12-07T03:22:37.973Z,9.57
2018-12-07T03:23:38.140Z,9.53
2018-12-07T03:24:38.054Z,9.58
2018-12-07T03:25:38.107Z,9.58
2018-12-07T03:26:38.147Z,9.56
2018-12-07T03:27:38.187Z,9.50
2018-12-07T03:28:38.253Z,9.49
2018-12-07T03:29:38.283Z,9.52
2018-12-07T03:30:38.404Z,9.56
2018-12-07T03:31:38.371Z,9.53
2018-12-07T03:32:38.434Z,9.57
2018-12-07T03:33:38.459Z,9.57
2018-12-07T03:34:38.509Z,9.60
2018-12-07T03:35:38.579Z,9.64
2018-12-07T03:36:38.598Z,9.70
2018-12-07T03:37:38.645Z,9.64
2018-12-07T03:38:38.689Z,9.66
2018-12-07T03:39:38.734Z,9.76
2018-12-07T03:40:38.815Z,9.76
2018-12-07T03:41:38.826Z,9.76
2018-12-07T03:42:38.868Z,9.79
2018-12-07T03:43:38.926Z,9.82
2018-12-07T03:44:38.961Z,9.73
2018-12-07T03:45:39.032Z,9.81
2018-12-07T03:46:39.078Z,9.79
2018-12-07T03:47:39.109Z,9.83
2018-12-07T03:48:39.147Z,9.81
2018-12-07T03:49:39.187Z,9.79
2018-12-07T03:50:39.261Z,9.75
2018-12-07T03:51:39.282Z,9.79
2018-12-07T03:52:39.323Z,9.78
2018-12-07T03:53:39.397Z,9.78
2018-12-07T03:54:39.417Z,9.63
2018-12-07T03:55:39.486Z,9.64
2018-12-07T03:56:39.506Z,9.63
2018-12-07T03:57:39.560Z,9.63
2018-12-07T03:58:39.599Z,9.53
2018-12-07T03:59:39.656Z,9.58
2018-12-07T04:00:39.764Z,9.50
2018-12-07T04:01:39.760Z,9.58
2018-12-07T04:02:39.795Z,9.48
2018-12-07T04:03:41.713Z,9.48
2018-12-07T04:04:39.878Z,9.61
2018-12-07T04:05:39.925Z,9.56
2018-12-07T04:06:39.968Z,9.61
2018-12-07T04:07:40.012Z,9.56
2018-12-07T04:08:40.088Z,9.58
2018-12-07T04:09:40.102Z,9.56
2018-12-07T04:10:40.147Z,9.58
2018-12-07T04:11:40.214Z,9.60
2018-12-07T04:12:40.243Z,9.63
2018-12-07T04:13:40.281Z,9.60
2018-12-07T04:14:40.328Z,9.57
2018-12-07T04:15:40.371Z,9.56
2018-12-07T04:16:40.444Z,9.58
2018-12-07T04:17:40.466Z,9.60
2018-12-07T04:18:40.518Z,9.61
2018-12-07T04:19:40.575Z,9.58
2018-12-07T04:20:40.602Z,9.57
2018-12-07T04:21:40.647Z,9.57
2018-12-07T04:22:40.694Z,9.58
2018-12-07T04:23:40.737Z,9.61
2018-12-07T04:24:40.804Z,9.60
2018-12-07T04:25:40.876Z,9.53
2018-12-07T04:26:40.876Z,9.57
2018-12-07T04:27:40.944Z,9.49
2018-12-07T04:28:40.976Z,9.49
2018-12-07T04:29:41.029Z,9.52
2018-12-07T04:30:41.078Z,9.58
2018-12-07T04:31:41.102Z,9.57
2018-12-07T04:32:41.147Z,9.63
2018-12-07T04:33:41.210Z,9.58
2018-12-07T04:34:41.284Z,9.57
2018-12-07T04:35:41.283Z,9.58
2018-12-07T04:36:41.327Z,9.61
2018-12-07T04:37:41.400Z,9.61
2018-12-07T04:38:41.422Z,9.56
2018-12-07T04:39:41.472Z,9.56
2018-12-07T04:40:41.513Z,9.57
2018-12-07T04:41:41.628Z,9.50
2018-12-07T04:42:41.603Z,9.60
2018-12-07T04:43:41.666Z,9.57
2018-12-07T04:44:41.691Z,9.48
2018-12-07T04:45:41.738Z,9.48
2018-12-07T04:46:41.804Z,9.48
2018-12-07T04:47:41.850Z,9.52
2018-12-07T04:48:41.898Z,9.49
2018-12-07T04:49:41.917Z,9.52
2018-12-07T04:50:42.500Z,9.50
2018-12-07T04:51:42.009Z,9.56
2018-12-07T04:52:42.078Z,9.70
2018-12-07T04:53:42.100Z,9.67
2018-12-07T04:54:42.155Z,9.61
2018-12-07T04:55:42.193Z,9.61
2018-12-07T04:56:42.246Z,9.68
2018-12-07T04:57:42.304Z,9.58
2018-12-07T04:58:43.001Z,9.58
2018-12-07T04:59:42.382Z,9.58
2018-12-07T05:00:42.448Z,9.56
2018-12-07T05:01:42.466Z,9.46
2018-12-07T05:02:42.510Z,9.50
2018-12-07T05:03:42.555Z,9.45
2018-12-07T05:04:42.605Z,9.49
2018-12-07T05:05:42.670Z,9.48
2018-12-07T05:06:42.704Z,9.49
2018-12-07T05:07:42.739Z,9.42
2018-12-07T05:08:42.790Z,9.45
2018-12-07T05:09:42.833Z,9.40
2018-12-07T05:10:42.896Z,9.45
2018-12-07T05:11:42.923Z,9.39
2018-12-07T05:12:42.967Z,9.43
2018-12-07T05:13:43.013Z,9.49
2018-12-07T05:14:43.057Z,9.49
2018-12-07T05:15:43.125Z,9.46
2018-12-07T05:16:43.170Z,9.48
2018-12-07T05:17:43.201Z,9.48
2018-12-07T05:18:43.238Z,9.40
2018-12-07T05:19:43.299Z,9.50
2018-12-07T05:20:43.332Z,9.42
2018-12-07T05:21:43.400Z,9.30
2018-12-07T05:22:43.447Z,9.38
2018-12-07T05:23:43.522Z,9.40
2018-12-07T05:24:43.508Z,9.45
2018-12-07T05:25:43.555Z,9.40
2018-12-07T05:26:43.598Z,9.43
2018-12-07T05:27:43.667Z,9.49
2018-12-07T05:28:43.695Z,9.48
2018-12-07T05:29:43.740Z,9.52
2018-12-07T05:30:43.817Z,9.48
2018-12-07T05:31:43.832Z,9.49
2018-12-07T05:32:43.899Z,9.48
2018-12-07T05:33:43.922Z,9.45
2018-12-07T05:34:43.963Z,9.49
2018-12-07T05:35:44.008Z,9.49
2018-12-07T05:36:44.056Z,9.46
2018-12-07T05:37:44.220Z,9.35
2018-12-07T05:38:44.179Z,9.38
2018-12-07T05:39:44.194Z,9.40
2018-12-07T05:40:44.255Z,9.30
2018-12-07T05:41:44.292Z,9.39
2018-12-07T05:42:44.326Z,9.42
2018-12-07T05:43:44.401Z,9.40
2018-12-07T05:44:44.426Z,9.34
2018-12-07T05:45:44.486Z,9.30
2018-12-07T05:46:44.518Z,9.45
2018-12-07T05:47:44.554Z,9.49
2018-12-07T05:48:44.600Z,9.46
2018-12-07T05:49:44.643Z,9.43
2018-12-07T05:50:44.713Z,9.45
2018-12-07T05:51:44.734Z,9.49
2018-12-07T05:52:44.786Z,9.48
2018-12-07T05:53:44.853Z,9.52
2018-12-07T05:54:44.896Z,9.49
2018-12-07T05:55:44.942Z,9.57
2018-12-07T05:56:44.973Z,9.48
2018-12-07T05:57:45.013Z,9.50
2018-12-07T05:58:45.069Z,9.50
2018-12-07T05:59:45.116Z,9.56
2018-12-07T06:00:45.203Z,9.53
2018-12-07T06:01:45.212Z,9.53
2018-12-07T06:02:45.235Z,9.58
2018-12-07T06:03:45.279Z,9.56
2018-12-07T06:04:45.335Z,9.56
2018-12-07T06:05:45.394Z,9.60
2018-12-07T06:06:45.435Z,9.46
2018-12-07T06:07:45.528Z,9.45
2018-12-07T06:08:45.507Z,9.43
2018-12-07T06:09:45.553Z,9.32
2018-12-07T06:10:45.618Z,9.35
2018-12-07T06:11:45.642Z,9.35
2018-12-07T06:12:45.691Z,9.31
2018-12-07T06:13:45.743Z,9.32
2018-12-07T06:14:45.889Z,9.34
2018-12-07T06:15:45.867Z,9.38
2018-12-07T06:16:45.871Z,9.38
2018-12-07T06:17:45.916Z,9.32
2018-12-07T06:18:45.969Z,9.24
2018-12-07T06:19:46.013Z,9.34
2018-12-07T06:20:46.078Z,9.32
2018-12-07T06:21:46.236Z,9.35
2018-12-07T06:22:46.815Z,9.25
2018-12-07T06:23:46.199Z,9.32
2018-12-07T06:24:46.250Z,9.35
2018-12-07T06:25:46.315Z,9.38
2018-12-07T06:26:46.324Z,9.38
2018-12-07T06:27:46.396Z,9.32
2018-12-07T06:28:46.418Z,9.30
2018-12-07T06:29:46.467Z,9.34
2018-12-07T06:30:46.506Z,9.35
2018-12-07T06:31:46.559Z,9.35
2018-12-07T06:32:46.629Z,9.34
2018-12-07T06:33:46.664Z,9.32
2018-12-07T06:34:46.687Z,9.35
2018-12-07T06:35:46.740Z,9.34
2018-12-07T06:36:46.783Z,9.32
2018-12-07T06:37:46.852Z,9.31
2018-12-07T06:38:46.894Z,9.28
2018-12-07T06:39:46.925Z,9.40
2018-12-07T06:40:46.965Z,9.31
2018-12-07T06:41:47.013Z,9.45
2018-12-07T06:42:47.077Z,9.43
2018-12-07T06:43:47.100Z,9.39
2018-12-07T06:44:47.154Z,9.38
2018-12-07T06:45:47.188Z,9.46
2018-12-07T06:46:47.281Z,9.40
2018-12-07T06:47:47.276Z,9.32
2018-12-07T06:48:47.324Z,9.32
2018-12-07T06:49:47.370Z,9.31
2018-12-07T06:50:47.413Z,9.35
2018-12-07T06:51:47.526Z,9.34
2018-12-07T06:52:47.571Z,9.23
2018-12-07T06:53:47.570Z,9.16
2018-12-07T06:54:47.616Z,9.20
2018-12-07T06:55:47.642Z,9.12
2018-12-07T06:56:47.696Z,9.20
2018-12-07T06:57:48.281Z,9.23
2018-12-07T06:58:47.782Z,9.20
2018-12-07T06:59:47.846Z,9.24
2018-12-07T07:00:47.881Z,9.18
2018-12-07T07:01:47.912Z,9.21
2018-12-07T07:02:47.969Z,9.16
2018-12-07T07:03:48.023Z,9.23
2018-12-07T07:04:48.049Z,9.16
2018-12-07T07:05:48.098Z,9.20
2018-12-07T07:06:48.158Z,9.25
2018-12-07T07:07:48.184Z,9.21
2018-12-07T07:08:48.265Z,9.24
2018-12-07T07:09:48.277Z,9.32
2018-12-07T07:10:48.322Z,9.30
2018-12-07T07:11:48.370Z,9.31
2018-12-07T07:12:48.414Z,9.28
2018-12-07T07:13:48.481Z,9.24
2018-12-07T07:14:48.520Z,9.23
2018-12-07T07:15:48.571Z,9.25
2018-12-07T07:16:48.591Z,9.31
2018-12-07T07:17:48.650Z,9.28
2018-12-07T07:18:48.682Z,9.25
2018-12-07T07:19:48.749Z,9.31
2018-12-07T07:20:48.808Z,9.40
2018-12-07T07:21:48.846Z,9.31
2018-12-07T07:22:48.875Z,9.48
2018-12-07T07:23:48.917Z,9.49
2018-12-07T07:24:48.991Z,9.58
2018-12-07T07:25:49.044Z,9.64
2018-12-07T07:26:49.048Z,9.63
2018-12-07T07:27:49.094Z,9.68
2018-12-07T07:28:49.150Z,9.61
2018-12-07T07:29:49.183Z,9.60
2018-12-07T07:30:49.254Z,9.61
2018-12-07T07:31:49.274Z,9.63
2018-12-07T07:32:49.320Z,9.56
2018-12-07T07:33:49.362Z,9.60
2018-12-07T07:34:49.416Z,9.57
2018-12-07T07:35:49.478Z,9.61
2018-12-07T07:36:49.499Z,9.53
2018-12-07T07:37:49.544Z,9.58
2018-12-07T07:38:49.597Z,9.61
2018-12-07T07:39:49.644Z,9.66
2018-12-07T07:40:49.703Z,9.68
2018-12-07T07:41:49.725Z,9.64
2018-12-07T07:42:49.775Z,9.64
2018-12-07T07:43:49.821Z,9.64
2018-12-07T07:44:49.898Z,9.60
2018-12-07T07:45:49.908Z,9.67
2018-12-07T07:46:49.951Z,9.64
2018-12-07T07:47:49.995Z,9.67
2018-12-07T07:48:50.043Z,9.66
2018-12-07T07:49:50.116Z,9.78
2018-12-07T07:50:50.137Z,9.76
2018-12-07T07:51:50.204Z,9.76
2018-12-07T07:52:50.227Z,9.76
2018-12-07T07:53:50.267Z,9.79
2018-12-07T07:54:50.405Z,9.89
2018-12-07T07:55:50.357Z,9.86
2018-12-07T07:56:50.423Z,9.73
2018-12-07T07:57:50.447Z,9.76
2018-12-07T07:58:50.502Z,9.73
2018-12-07T07:59:50.548Z,9.67
2018-12-07T08:00:50.601Z,9.58
2018-12-07T08:01:50.652Z,9.60
2018-12-07T08:02:50.684Z,9.64
2018-12-07T08:03:50.729Z,9.56
2018-12-07T08:04:50.764Z,9.57
2018-12-07T08:05:50.818Z,9.61
2018-12-07T08:06:50.885Z,9.58
2018-12-07T08:07:50.930Z,9.58
2018-12-07T08:08:50.956Z,9.68
2018-12-07T08:09:51.002Z,9.67
2018-12-07T08:10:51.039Z,9.76
2018-12-07T08:11:51.087Z,9.76
2018-12-07T08:12:51.154Z,9.71
2018-12-07T08:13:51.174Z,9.78
2018-12-07T08:14:51.317Z,9.83
2018-12-07T08:15:51.268Z,9.88
2018-12-07T08:16:51.331Z,9.96
2018-12-07T08:17:51.397Z,9.91
2018-12-07T08:18:51.404Z,9.94
2018-12-07T08:19:51.448Z,9.91
2018-12-07T08:20:51.498Z,9.85
2018-12-07T08:21:51.616Z,9.86
2018-12-07T08:22:51.603Z,9.88
2018-12-07T08:23:51.632Z,9.86
2018-12-07T08:24:51.694Z,9.93
2018-12-07T08:25:51.723Z,9.99
2018-12-07T08:26:51.774Z,10.07
2018-12-07T08:27:51.842Z,10.00
2018-12-07T08:28:51.914Z,10.15
2018-12-07T08:29:51.930Z,10.17
2018-12-07T08:30:51.949Z,10.24
2018-12-07T08:31:51.994Z,10.25
2018-12-07T08:32:52.042Z,10.26
2018-12-07T08:33:52.086Z,10.34
2018-12-07T08:34:52.161Z,10.32
2018-12-07T08:35:52.177Z,10.53
2018-12-07T08:36:52.227Z,10.44
2018-12-07T08:37:52.272Z,10.52
2018-12-07T08:38:52.343Z,10.60
2018-12-07T08:39:52.362Z,10.46
2018-12-07T08:40:52.410Z,10.62
2018-12-07T08:41:52.461Z,10.63
2018-12-07T08:42:52.502Z,10.53
2018-12-07T08:43:52.573Z,10.51
2018-12-07T08:44:52.852Z,10.55
2018-12-07T08:45:52.643Z,10.52
2018-12-07T08:46:52.681Z,10.62
2018-12-07T08:47:52.734Z,10.55
2018-12-07T08:48:52.787Z,10.62
2018-12-07T08:49:52.841Z,10.44
2018-12-07T08:50:52.866Z,10.58
2018-12-07T08:51:52.938Z,10.59
2018-12-07T08:52:52.970Z,10.73
2018-12-07T08:53:53.011Z,10.81
2018-12-07T08:54:53.836Z,11.09
2018-12-07T08:55:53.139Z,11.32
2018-12-07T08:56:53.159Z,11.39
2018-12-07T08:57:53.198Z,11.50
2018-12-07T08:58:53.339Z,11.70
2018-12-07T08:59:53.303Z,11.89
2018-12-07T09:00:53.345Z,11.96
2018-12-07T09:01:53.385Z,11.86
2018-12-07T09:02:53.421Z,11.86
2018-12-07T09:03:53.474Z,11.94
2018-12-07T09:04:53.525Z,11.97
2018-12-07T09:05:53.630Z,12.11
2018-12-07T09:06:53.610Z,12.11
2018-12-07T09:07:53.664Z,12.09
2018-12-07T09:08:53.726Z,11.94
2018-12-07T09:09:53.756Z,11.74
2018-12-07T09:10:53.823Z,11.70
2018-12-07T09:11:53.873Z,11.77
2018-12-07T09:12:53.894Z,11.83
2018-12-07T09:13:53.948Z,11.87
2018-12-07T09:14:54.001Z,11.83
2018-12-07T09:15:54.038Z,11.87
2018-12-07T09:16:54.132Z,11.86
2018-12-07T09:17:54.130Z,11.85
2018-12-07T09:18:54.187Z,11.75
2018-12-07T09:19:54.227Z,11.72
2018-12-07T09:20:54.464Z,11.78
2018-12-07T09:21:54.359Z,11.82
2018-12-07T09:22:54.384Z,11.85
2018-12-07T09:23:54.426Z,11.87
2018-12-07T09:24:54.465Z,11.67
2018-12-07T09:25:54.509Z,11.72
2018-12-07T09:26:54.578Z,11.78
2018-12-07T09:27:54.605Z,11.80
2018-12-07T09:28:54.653Z,11.71
2018-12-07T09:29:54.741Z,11.70
2018-12-07T09:30:54.746Z,11.70
2018-12-07T09:31:54.797Z,11.74
2018-12-07T09:32:54.837Z,11.85
2018-12-07T09:33:54.887Z,11.89
2018-12-07T09:34:54.962Z,11.85
2018-12-07T09:35:55.039Z,11.85
2018-12-07T09:36:55.029Z,11.94
2018-12-07T09:37:55.104Z,11.96
2018-12-07T09:38:55.123Z,12.01
2018-12-07T09:39:55.175Z,12.01
2018-12-07T09:40:55.219Z,12.06
2018-12-07T09:41:55.264Z,12.06
2018-12-07T09:42:55.424Z,12.19
2018-12-07T09:43:55.383Z,12.24
2018-12-07T09:44:55.410Z,12.24
2018-12-07T09:45:55.456Z,12.38
2018-12-07T09:46:56.183Z,12.33
2018-12-07T09:47:55.575Z,12.41
2018-12-07T09:48:55.618Z,12.57
2018-12-07T09:49:55.736Z,12.52
2018-12-07T09:50:55.694Z,12.52
2018-12-07T09:51:55.743Z,12.75
2018-12-07T09:52:55.797Z,12.79
2018-12-07T09:53:55.852Z,12.74
2018-12-07T09:54:55.885Z,12.79
2018-12-07T09:55:55.951Z,12.81
2018-12-07T09:56:56.102Z,12.84
2018-12-07T09:57:56.028Z,12.87
2018-12-07T09:58:56.077Z,12.81
2018-12-07T09:59:56.133Z,12.82
2018-12-07T10:00:56.190Z,12.77
2018-12-07T10:01:56.245Z,12.81
2018-12-07T10:02:56.266Z,12.89
2018-12-07T10:03:56.348Z,12.82
2018-12-07T10:04:56.385Z,12.75
2018-12-07T10:05:56.415Z,12.77
2018-12-07T10:06:56.486Z,12.75
2018-12-07T10:07:56.504Z,12.77
2018-12-07T10:08:56.573Z,12.79
2018-12-07T10:09:56.602Z,12.82
2018-12-07T10:10:56.657Z,12.89
2018-12-07T10:11:56.727Z,12.82
2018-12-07T10:12:56.746Z,12.93
2018-12-07T10:13:56.805Z,12.92
2018-12-07T10:14:56.846Z,12.77
2018-12-07T10:15:56.926Z,12.70
2018-12-07T10:16:56.938Z,12.66
2018-12-07T10:17:56.986Z,12.75
2018-12-07T10:18:57.036Z,12.77
2018-12-07T10:19:57.108Z,12.70
2018-12-07T10:20:57.154Z,12.70
2018-12-07T10:21:57.211Z,12.81
2018-12-07T10:22:57.249Z,12.78
2018-12-07T10:23:57.844Z,12.74
2018-12-07T10:24:57.347Z,12.78
2018-12-07T10:25:57.370Z,12.89
2018-12-07T10:26:57.432Z,12.99
2018-12-07T10:27:57.466Z,13.03
2018-12-07T10:28:57.523Z,13.02
2018-12-07T10:29:57.597Z,13.04
2018-12-07T10:30:57.620Z,13.04
2018-12-07T10:31:57.678Z,13.03
2018-12-07T10:32:57.743Z,13.20
2018-12-07T10:33:57.756Z,13.22
2018-12-07T10:34:57.805Z,13.32
2018-12-07T10:35:57.860Z,13.36
2018-12-07T10:36:57.928Z,13.54
2018-12-07T10:37:58.016Z,13.56
2018-12-07T10:38:57.999Z,13.62
2018-12-07T10:39:58.086Z,13.74
2018-12-07T10:40:58.126Z,13.92
2018-12-07T10:41:59.850Z,13.96
2018-12-07T10:42:58.190Z,14.10
2018-12-07T10:43:58.250Z,14.16
2018-12-07T10:44:58.315Z,14.28
2018-12-07T10:45:58.341Z,14.10
2018-12-07T10:46:58.418Z,14.14
2018-12-07T10:47:58.496Z,14.25
2018-12-07T10:48:58.498Z,14.21
2018-12-07T10:49:58.542Z,14.14
2018-12-07T10:50:58.619Z,14.28
2018-12-07T10:51:58.638Z,14.31
2018-12-07T10:52:58.679Z,14.37
2018-12-07T10:53:58.729Z,14.52
2018-12-07T10:54:58.775Z,14.60
2018-12-07T10:55:58.866Z,14.54
2018-12-07T10:56:58.873Z,14.49
2018-12-07T10:57:58.923Z,14.53
2018-12-07T10:58:58.976Z,14.52
2018-12-07T10:59:59.031Z,14.47
2018-12-07T11:00:59.095Z,14.60
2018-12-07T11:01:59.132Z,14.52
2018-12-07T11:02:59.171Z,14.29
2018-12-07T11:03:59.231Z,14.28
2018-12-07T11:04:59.274Z,14.17
2018-12-07T11:05:59.347Z,13.96
2018-12-07T11:06:59.375Z,13.84
2018-12-07T11:07:59.438Z,13.83
2018-12-07T11:08:59.467Z,13.81
2018-12-07T11:09:59.514Z,13.83
2018-12-07T11:10:59.595Z,13.88
2018-12-07T11:11:59.614Z,13.73
2018-12-07T11:12:59.669Z,13.71
2018-12-07T11:13:59.717Z,13.63
2018-12-07T11:14:59.767Z,13.58
2018-12-07T11:15:59.830Z,13.38
2018-12-07T11:16:59.864Z,13.20
2018-12-07T11:17:59.924Z,13.07
2018-12-07T11:18:59.956Z,13.09
2018-12-07T11:20:00.006Z,13.11
2018-12-07T11:21:00.079Z,13.07
2018-12-07T11:22:00.101Z,13.17
2018-12-07T11:23:00.190Z,13.00
2018-12-07T11:24:00.202Z,12.81
2018-12-07T11:25:00.257Z,12.81
2018-12-07T11:26:00.296Z,12.95
2018-12-07T11:27:00.353Z,13.02
2018-12-07T11:28:00.420Z,13.03
2018-12-07T11:29:00.446Z,13.04
2018-12-07T11:30:00.492Z,13.17
2018-12-07T11:31:00.555Z,13.11
2018-12-07T11:32:00.590Z,13.21
2018-12-07T11:33:01.473Z,13.21
2018-12-07T11:34:00.689Z,13.12
2018-12-07T11:35:00.748Z,13.12
2018-12-07T11:36:07.952Z,13.06
2018-12-07T11:37:00.905Z,13.00
2018-12-07T11:38:00.887Z,12.99
2018-12-07T11:39:00.954Z,12.99
2018-12-07T11:40:00.985Z,12.84
2018-12-07T11:41:01.027Z,12.93
2018-12-07T11:42:01.075Z,12.79
2018-12-07T11:43:01.129Z,12.71
2018-12-07T11:44:01.384Z,12.67
2018-12-07T11:45:01.224Z,12.48
2018-12-07T11:46:01.270Z,12.52
2018-12-07T11:47:01.317Z,12.34
2018-12-07T11:48:01.357Z,12.41
2018-12-07T11:49:01.433Z,12.44
2018-12-07T11:50:01.476Z,12.44
2018-12-07T11:51:01.534Z,12.26
2018-12-07T11:52:01.558Z,12.27
2018-12-07T11:53:01.617Z,12.34
2018-12-07T11:54:01.678Z,12.45
2018-12-07T11:55:01.732Z,12.37
2018-12-07T11:56:01.754Z,12.44
2018-12-07T11:57:01.795Z,12.46
2018-12-07T11:58:01.847Z,12.49
2018-12-07T11:59:01.895Z,12.38
2018-12-07T12:00:01.981Z,12.37
2018-12-07T12:01:01.984Z,12.41
2018-12-07T12:02:02.039Z,12.38
2018-12-07T12:03:02.089Z,12.39
2018-12-07T12:04:02.132Z,12.34
2018-12-07T12:05:02.330Z,12.41
2018-12-07T12:06:02.234Z,12.41
2018-12-07T12:07:02.290Z,12.30
2018-12-07T12:08:02.326Z,12.39
2018-12-07T12:09:02.366Z,12.39
2018-12-07T12:10:02.448Z,12.34
2018-12-07T12:11:02.460Z,12.41
2018-12-07T12:12:02.537Z,12.57
2018-12-07T12:13:02.564Z,12.49
2018-12-07T12:14:02.625Z,12.45
2018-12-07T12:15:02.654Z,12.49
2018-12-07T12:16:02.709Z,12.54
2018-12-07T12:17:02.782Z,12.49
2018-12-07T12:18:02.804Z,12.49
2018-12-07T12:19:02.863Z,12.75
2018-12-07T12:20:02.899Z,12.49
2018-12-07T12:21:02.943Z,12.51
2018-12-07T12:22:03.007Z,12.52
2018-12-07T12:23:03.051Z,12.54
2018-12-07T12:24:03.083Z,12.52
2018-12-07T12:25:03.138Z,12.52
2018-12-07T12:26:03.180Z,12.60
2018-12-07T12:27:03.261Z,12.63
2018-12-07T12:28:03.329Z,12.66
2018-12-07T12:29:03.322Z,12.77
2018-12-07T12:30:03.374Z,12.74
2018-12-07T12:31:03.433Z,12.92
2018-12-07T12:32:03.515Z,12.82
2018-12-07T12:33:03.514Z,12.93
2018-12-07T12:34:03.561Z,12.99
2018-12-07T12:35:03.674Z,13.00
2018-12-07T12:36:03.656Z,13.04
2018-12-07T12:37:03.739Z,13.17
2018-12-07T12:38:03.774Z,13.18
2018-12-07T12:39:03.809Z,13.21
2018-12-07T12:40:03.856Z,13.37
2018-12-07T12:41:03.912Z,13.32
2018-12-07T12:42:04.021Z,13.41
2018-12-07T12:43:04.032Z,13.40
2018-12-07T12:44:04.043Z,13.43
2018-12-07T12:45:04.095Z,13.54
2018-12-07T12:46:04.145Z,13.47
2018-12-07T12:47:04.190Z,13.52
2018-12-07T12:48:04.265Z,13.41
2018-12-07T12:49:04.291Z,13.38
2018-12-07T12:50:04.344Z,13.30
2018-12-07T12:51:04.378Z,13.29
2018-12-07T12:52:04.436Z,13.14
2018-12-07T12:53:04.506Z,13.11
2018-12-07T12:54:04.544Z,13.03
2018-12-07T12:55:04.576Z,13.03
2018-12-07T12:56:04.622Z,13.12
2018-12-07T12:57:04.669Z,13.03
2018-12-07T12:58:04.714Z,13.03
2018-12-07T12:59:04.803Z,13.00
2018-12-07T13:00:04.818Z,12.97
2018-12-07T13:01:04.950Z,12.96
2018-12-07T13:02:04.916Z,12.99
2018-12-07T13:03:04.958Z,12.95
2018-12-07T13:04:05.030Z,13.02
2018-12-07T13:05:05.073Z,13.02
2018-12-07T13:06:05.099Z,13.02
2018-12-07T13:07:05.152Z,13.04
2018-12-07T13:08:05.206Z,13.00
2018-12-07T13:09:05.321Z,13.09
2018-12-07T13:10:05.320Z,13.15